createdAt,value
2023-04-15T00:01:08.705Z,99755.25
2023-04-15T00:03:35.276Z,99750.75
2023-04-15T00:06:01.868Z,99731.69
2023-04-15T00:08:28.269Z,99734.88
2023-04-15T00:10:54.574Z,99733.22
2023-04-15T00:13:20.980Z,99721.75
2023-04-15T00:15:47.314Z,99722.94
2023-04-15T00:18:13.671Z,99721.16
2023-04-15T00:20:39.974Z,99717.06
2023-04-15T00:23:06.303Z,99716.16
2023-04-15T00:25:32.641Z,99713.88
2023-04-15T00:27:59.014Z,99706.34
2023-04-15T00:30:25.352Z,99704.34
2023-04-15T00:32:51.710Z,99701.03
2023-04-15T00:35:18.058Z,99695.47
2023-04-15T00:37:46.066Z,99702.72
2023-04-15T00:40:12.870Z,99707.38
2023-04-15T00:42:39.192Z,99701.34
2023-04-15T00:45:05.564Z,99696.97
2023-04-15T00:47:31.921Z,99690.03
2023-04-15T00:49:58.269Z,99686.69
2023-04-15T00:52:24.611Z,99693.78
2023-04-15T00:54:50.967Z,99692.44
2023-04-15T00:57:17.337Z,99691.19
2023-04-15T00:59:43.665Z,99691.94
2023-04-15T01:02:10.208Z,99690.00
2023-04-15T01:04:36.702Z,99684.88
2023-04-15T01:07:03.119Z,99685.03
2023-04-15T01:09:29.506Z,99690.91
2023-04-15T01:11:55.873Z,99678.22
2023-04-15T01:14:22.210Z,99669.75
2023-04-15T01:16:48.519Z,99671.88
2023-04-15T01:19:14.871Z,99669.31
2023-04-15T01:21:41.310Z,99673.56
2023-04-15T01:24:07.604Z,99663.59
2023-04-15T01:26:33.902Z,99671.28
2023-04-15T01:29:00.606Z,99667.81
2023-04-15T01:31:27.220Z,99668.56
2023-04-15T01:33:53.568Z,99669.94
2023-04-15T01:36:19.891Z,99655.84
2023-04-15T01:38:46.245Z,99666.75
2023-04-15T01:41:12.605Z,99669.75
2023-04-15T01:43:38.968Z,99672.66
2023-04-15T01:46:05.272Z,99669.94
2023-04-15T01:48:31.627Z,99689.72
2023-04-15T01:50:57.958Z,99697.72
2023-04-15T01:53:24.426Z,99684.13
2023-04-15T01:55:50.776Z,99687.75
2023-04-15T01:58:17.093Z,99676.56
2023-04-15T02:00:43.451Z,99677.19
2023-04-15T02:03:09.957Z,99680.91
2023-04-15T02:05:36.302Z,99684.72
2023-04-15T02:08:02.621Z,99689.22
2023-04-15T02:10:28.998Z,99694.88
2023-04-15T02:12:55.334Z,99697.72
2023-04-15T02:15:21.644Z,99699.41
2023-04-15T02:17:48.049Z,99703.16
2023-04-15T02:20:14.360Z,99703.16
2023-04-15T02:22:40.720Z,99710.28
2023-04-15T02:25:07.093Z,99711.94
2023-04-15T02:27:33.431Z,99715.25
2023-04-15T02:29:59.807Z,99721.75
2023-04-15T02:32:26.228Z,99721.44
2023-04-15T02:34:52.621Z,99716.63
2023-04-15T02:37:18.945Z,99724.16
2023-04-15T02:39:45.270Z,99734.75
2023-04-15T02:42:11.613Z,99733.69
2023-04-15T02:44:37.930Z,99738.81
2023-04-15T02:47:04.289Z,99732.63
2023-04-15T02:49:30.651Z,99741.38
2023-04-15T02:51:57.134Z,99749.84
2023-04-15T02:54:23.453Z,99745.00
2023-04-15T02:56:49.799Z,99750.78
2023-04-15T02:59:16.102Z,99749.38
2023-04-15T03:01:42.475Z,99759.22
2023-04-15T03:04:08.957Z,99761.78
2023-04-15T03:06:35.540Z,99770.97
2023-04-15T03:09:02.156Z,99778.84
2023-04-15T03:11:28.712Z,99779.13
2023-04-15T03:13:55.095Z,99782.19
2023-04-15T03:16:21.583Z,99786.25
2023-04-15T03:18:48.011Z,99788.06
2023-04-15T03:21:14.315Z,99788.81
2023-04-15T03:23:40.681Z,99795.78
2023-04-15T03:26:07.022Z,99793.06
2023-04-15T03:28:33.315Z,99800.59
2023-04-15T03:30:59.666Z,99799.56
2023-04-15T03:33:26.093Z,99798.81
2023-04-15T03:35:52.414Z,99805.88
2023-04-15T03:38:18.725Z,99805.72
2023-04-15T03:40:45.081Z,99809.81
2023-04-15T03:43:11.438Z,99814.66
2023-04-15T03:45:37.860Z,99819.81
2023-04-15T03:48:16.442Z,99819.50
2023-04-15T03:50:43.863Z,99821.16
2023-04-15T03:53:10.159Z,99822.06
2023-04-15T03:55:36.466Z,99822.81
2023-04-15T03:58:02.823Z,99825.53
2023-04-15T04:00:29.122Z,99827.50
2023-04-15T04:02:55.573Z,99833.53
2023-04-15T04:05:22.120Z,99836.13
2023-04-15T04:07:48.442Z,99838.81
2023-04-15T04:10:14.753Z,99845.94
2023-04-15T04:12:41.135Z,99837.63
2023-04-15T04:15:07.480Z,99837.94
2023-04-15T04:17:33.847Z,99842.00
2023-04-15T04:20:00.244Z,99838.97
2023-04-15T04:22:26.543Z,99851.97
2023-04-15T04:24:52.877Z,99852.28
2023-04-15T04:27:19.232Z,99851.09
2023-04-15T04:29:45.589Z,99853.50
2023-04-15T04:32:12.040Z,99858.63
2023-04-15T04:34:38.431Z,99862.56
2023-04-15T04:37:04.779Z,99869.19
2023-04-15T04:39:31.132Z,99868.44
2023-04-15T04:41:57.436Z,99872.69
2023-04-15T04:44:23.791Z,99873.28
2023-04-15T04:46:50.157Z,99881.16
2023-04-15T04:49:16.458Z,99883.41
2023-04-15T04:51:42.740Z,99880.53
2023-04-15T04:54:09.080Z,99886.13
2023-04-15T04:56:35.403Z,99888.84
2023-04-15T04:59:01.862Z,99890.19
2023-04-15T05:01:28.460Z,99895.47
2023-04-15T05:03:54.941Z,99905.63
2023-04-15T05:06:21.321Z,99912.72
2023-04-15T05:08:47.664Z,99924.19
2023-04-15T05:11:14.029Z,99922.53
2023-04-15T05:13:40.407Z,99926.31
2023-04-15T05:16:06.833Z,99926.63
2023-04-15T05:18:33.307Z,99938.69
2023-04-15T05:20:59.681Z,99940.97
2023-04-15T05:23:25.990Z,99949.88
2023-04-15T05:25:52.354Z,99949.88
2023-04-15T05:28:18.716Z,99959.72
2023-04-15T05:30:45.021Z,99962.56
2023-04-15T05:33:11.363Z,99967.25
2023-04-15T05:35:37.679Z,99967.56
2023-04-15T05:38:04.038Z,99972.84
2023-04-15T05:40:30.335Z,99977.53
2023-04-15T05:42:56.624Z,99985.22
2023-04-15T05:45:23.001Z,99995.53
2023-04-15T05:47:49.360Z,100002.78
2023-04-15T05:50:15.727Z,99996.09
2023-04-15T05:52:42.125Z,100002.78
2023-04-15T05:55:08.457Z,100008.22
2023-04-15T05:57:34.820Z,100019.81
2023-04-15T06:00:01.144Z,100026.34
2023-04-15T06:02:27.591Z,100027.09
2023-04-15T06:04:54.085Z,100027.25
2023-04-15T06:07:20.463Z,100042.81
2023-04-15T06:09:46.791Z,100033.44
2023-04-15T06:12:13.108Z,100048.69
2023-04-15T06:14:39.509Z,100054.75
2023-04-15T06:17:05.824Z,100056.53
2023-04-15T06:19:32.188Z,100067.44
2023-04-15T06:21:58.609Z,100068.03
2023-04-15T06:24:24.974Z,100078.03
2023-04-15T06:26:51.527Z,100096.59
2023-04-15T06:29:17.910Z,100090.22
2023-04-15T06:31:44.249Z,100103.06
2023-04-15T06:34:10.594Z,100104.00
2023-04-15T06:36:36.884Z,100103.25
2023-04-15T06:39:03.425Z,100110.78
2023-04-15T06:41:29.953Z,100126.06
2023-04-15T06:43:56.262Z,100129.06
2023-04-15T06:46:22.686Z,100134.66
2023-04-15T06:48:49.030Z,100129.41
2023-04-15T06:51:15.324Z,100138.63
2023-04-15T06:53:41.698Z,100151.44
2023-04-15T06:56:08.029Z,100155.69
2023-04-15T06:58:34.366Z,100155.38
2023-04-15T07:01:00.745Z,100166.25
2023-04-15T07:03:27.192Z,100174.09
2023-04-15T07:05:53.572Z,100176.06
2023-04-15T07:08:19.932Z,100169.28
2023-04-15T07:10:46.249Z,100182.91
2023-04-15T07:13:12.599Z,100183.47
2023-04-15T07:15:38.954Z,100188.91
2023-04-15T07:18:07.408Z,100197.09
2023-04-15T07:20:33.783Z,100201.78
2023-04-15T07:23:00.176Z,100206.75
2023-04-15T07:25:26.467Z,100213.41
2023-04-15T07:27:52.827Z,100218.38
2023-04-15T07:30:19.216Z,100216.59
2023-04-15T07:32:45.577Z,100227.59
2023-04-15T07:35:11.932Z,100226.72
2023-04-15T07:37:38.258Z,100234.50
2023-04-15T07:40:04.565Z,100243.28
2023-04-15T07:42:30.870Z,100251.03
2023-04-15T07:44:57.243Z,100247.53
2023-04-15T07:47:23.648Z,100256.13
2023-04-15T07:49:49.978Z,100267.47
2023-04-15T07:52:16.275Z,100268.66
2023-04-15T07:54:42.635Z,100274.41
2023-04-15T07:57:09.006Z,100280.47
2023-04-15T07:59:35.390Z,100286.06
2023-04-15T08:02:01.791Z,100293.44
2023-04-15T08:04:28.279Z,100292.56
2023-04-15T08:06:54.693Z,100301.47
2023-04-15T08:09:21.093Z,100308.56
2023-04-15T08:11:47.530Z,100312.47
2023-04-15T08:14:13.868Z,100314.59
2023-04-15T08:16:40.223Z,100320.22
2023-04-15T08:19:06.595Z,100329.56
2023-04-15T08:21:32.976Z,100335.38
2023-04-15T08:23:59.335Z,100344.88
2023-04-15T08:26:25.703Z,100342.16
2023-04-15T08:28:52.010Z,100358.94
2023-04-15T08:31:18.493Z,100365.38
2023-04-15T08:33:45.078Z,100366.63
2023-04-15T08:36:11.407Z,100370.34
2023-04-15T08:38:37.731Z,100380.03
2023-04-15T08:41:04.084Z,100382.38
2023-04-15T08:43:30.394Z,100388.25
2023-04-15T08:45:56.723Z,100391.69
2023-04-15T08:48:23.082Z,100397.19
2023-04-15T08:50:49.396Z,100399.03
2023-04-15T08:53:15.721Z,100402.19
2023-04-15T08:55:42.058Z,100411.84
2023-04-15T08:58:08.405Z,100421.88
2023-04-15T09:00:34.834Z,100419.59
2023-04-15T09:03:01.222Z,100420.03
2023-04-15T09:05:27.584Z,100433.44
2023-04-15T09:07:54.107Z,100444.84
2023-04-15T09:10:20.484Z,100438.56
2023-04-15T09:12:46.775Z,100441.66
2023-04-15T09:15:13.094Z,100453.66
2023-04-15T09:17:39.511Z,100463.66
2023-04-15T09:20:05.857Z,100474.63
2023-04-15T09:22:32.182Z,100476.06
2023-04-15T09:24:58.536Z,100483.03
2023-04-15T09:27:24.857Z,100489.38
2023-04-15T09:29:51.246Z,100498.59
2023-04-15T09:32:17.655Z,100500.13
2023-04-15T09:34:44.002Z,100511.13
2023-04-15T09:37:10.539Z,100504.47
2023-04-15T09:39:36.923Z,100511.97
2023-04-15T09:42:03.293Z,100513.69
2023-04-15T09:44:29.643Z,100520.25
2023-04-15T09:46:55.992Z,100520.13
2023-04-15T09:49:22.356Z,100534.16
2023-04-15T09:52:01.439Z,100533.59
2023-04-15T09:54:31.272Z,100544.50
2023-04-15T09:56:57.593Z,100544.31
2023-04-15T09:59:23.920Z,100548.09
2023-04-15T10:01:50.370Z,100562.66
2023-04-15T10:04:16.868Z,100564.19
2023-04-15T10:06:43.240Z,100572.34
2023-04-15T10:09:09.592Z,100567.78
2023-04-15T10:11:35.952Z,100571.69
2023-04-15T10:14:02.509Z,100579.88
2023-04-15T10:16:28.938Z,100582.91
2023-04-15T10:18:55.248Z,100586.25
2023-04-15T10:21:21.705Z,100597.59
2023-04-15T10:23:48.063Z,100595.66
2023-04-15T10:26:14.434Z,100600.22
2023-04-15T10:28:40.766Z,100601.63
2023-04-15T10:31:07.156Z,100600.75
2023-04-15T10:33:33.533Z,100599.69
2023-04-15T10:35:59.952Z,100608.19
2023-04-15T10:38:26.260Z,100619.91
2023-04-15T10:40:52.549Z,100620.13
2023-04-15T10:43:18.864Z,100623.47
2023-04-15T10:45:45.193Z,100627.44
2023-04-15T10:48:11.669Z,100620.56
2023-04-15T10:50:38.073Z,100628.38
2023-04-15T10:53:04.403Z,100628.31
2023-04-15T10:55:30.729Z,100627.09
2023-04-15T10:57:57.138Z,100641.44
2023-04-15T11:00:23.490Z,100647.13
2023-04-15T11:02:50.049Z,100647.84
2023-04-15T11:05:16.489Z,100644.81
2023-04-15T11:07:42.801Z,100650.06
2023-04-15T11:10:09.148Z,100657.25
2023-04-15T11:12:35.476Z,100661.50
2023-04-15T11:15:01.846Z,100668.25
2023-04-15T11:17:28.190Z,100670.97
2023-04-15T11:19:54.541Z,100677.28
2023-04-15T11:22:20.850Z,100673.13
2023-04-15T11:24:47.356Z,100673.13
2023-04-15T11:27:13.697Z,100688.06
2023-04-15T11:29:40.015Z,100688.81
2023-04-15T11:32:06.400Z,100678.06
2023-04-15T11:34:34.114Z,100688.94
2023-04-15T11:37:01.310Z,100689.25
2023-04-15T11:39:27.667Z,100701.09
2023-04-15T11:41:53.983Z,100717.44
2023-04-15T11:44:20.474Z,100706.44
2023-04-15T11:46:46.838Z,100719.09
2023-04-15T11:49:13.175Z,100712.88
2023-04-15T11:51:39.564Z,100733.16
2023-04-15T11:54:06.066Z,100721.59
2023-04-15T11:56:32.575Z,100735.66
2023-04-15T11:58:58.899Z,100737.16
2023-04-15T12:01:25.209Z,100731.72
2023-04-15T12:03:51.645Z,100743.03
2023-04-15T12:06:18.133Z,100749.78
2023-04-15T12:08:44.507Z,100746.59
2023-04-15T12:11:10.831Z,100759.13
2023-04-15T12:13:37.190Z,100764.25
2023-04-15T12:16:03.567Z,100763.81
2023-04-15T12:18:29.921Z,100768.06
2023-04-15T12:20:56.293Z,100774.38
2023-04-15T12:23:22.653Z,100783.84
2023-04-15T12:25:48.971Z,100791.00
2023-04-15T12:28:15.400Z,100794.31
2023-04-15T12:30:41.788Z,100796.81
2023-04-15T12:33:08.124Z,100802.66
2023-04-15T12:35:34.521Z,100798.47
2023-04-15T12:38:00.880Z,100805.53
2023-04-15T12:40:27.257Z,100807.16
2023-04-15T12:42:53.595Z,100811.06
2023-04-15T12:45:19.912Z,100812.59
2023-04-15T12:47:46.281Z,100834.06
2023-04-15T12:50:12.666Z,100829.38
2023-04-15T12:52:39.043Z,100833.69
2023-04-15T12:55:05.436Z,100836.50
2023-04-15T12:57:31.746Z,100840.91
2023-04-15T12:59:58.098Z,100849.59
2023-04-15T13:02:24.666Z,100847.41
2023-04-15T13:04:51.210Z,100853.97
2023-04-15T13:07:17.585Z,100859.31
2023-04-15T13:09:43.952Z,100862.38
2023-04-15T13:12:10.288Z,100869.44
2023-04-15T13:14:36.656Z,100876.06
2023-04-15T13:17:03.036Z,100884.56
2023-04-15T13:19:29.394Z,100887.69
2023-04-15T13:21:55.745Z,100901.41
2023-04-15T13:24:22.174Z,100893.56
2023-04-15T13:26:50.194Z,100896.97
2023-04-15T13:29:16.836Z,100900.53
2023-04-15T13:31:43.225Z,100906.09
2023-04-15T13:34:09.654Z,100916.75
2023-04-15T13:36:35.963Z,100912.63
2023-04-15T13:39:02.255Z,100915.44
2023-04-15T13:41:28.567Z,100919.22
2023-04-15T13:43:54.900Z,100917.88
2023-04-15T13:46:21.271Z,100927.44
2023-04-15T13:48:47.639Z,100936.84
2023-04-15T13:51:14.097Z,100939.66
2023-04-15T13:53:40.452Z,100941.63
2023-04-15T13:56:06.832Z,100953.63
2023-04-15T13:58:33.155Z,100956.34
2023-04-15T14:00:59.534Z,100956.44
2023-04-15T14:03:26.001Z,100957.69
2023-04-15T14:05:52.478Z,100960.25
2023-04-15T14:08:18.783Z,100964.94
2023-04-15T14:10:46.135Z,100964.16
2023-04-15T14:13:12.463Z,100969.97
2023-04-15T14:15:38.794Z,100971.91
2023-04-15T14:18:05.168Z,100981.50
2023-04-15T14:20:31.660Z,100982.19
2023-04-15T14:22:57.963Z,100989.19
2023-04-15T14:25:33.297Z,100989.09
2023-04-15T14:28:00.502Z,100996.06
2023-04-15T14:30:26.880Z,100993.00
2023-04-15T14:32:54.536Z,101000.31
2023-04-15T14:35:20.924Z,101010.88
2023-04-15T14:37:47.299Z,101003.91
2023-04-15T14:40:13.693Z,101014.69
2023-04-15T14:42:40.011Z,101017.50
2023-04-15T14:45:06.408Z,101018.94
2023-04-15T14:47:32.733Z,101029.59
2023-04-15T14:49:59.087Z,101017.75
2023-04-15T14:52:25.416Z,101020.81
2023-04-15T14:54:51.708Z,101028.53
2023-04-15T14:57:18.003Z,101030.25
2023-04-15T14:59:44.328Z,101027.75
2023-04-15T15:02:11.541Z,101027.44
2023-04-15T15:04:39.339Z,101026.59
2023-04-15T15:07:05.686Z,101031.69
2023-04-15T15:09:33.857Z,101033.13
2023-04-15T15:12:01.224Z,101041.06
2023-04-15T15:14:27.620Z,101044.72
2023-04-15T15:16:53.982Z,101032.03
2023-04-15T15:19:20.367Z,101049.91
2023-04-15T15:21:46.719Z,101039.53
2023-04-15T15:24:13.036Z,101049.63
2023-04-15T15:26:39.392Z,101047.44
2023-04-15T15:29:05.968Z,101060.53
2023-04-15T15:31:32.528Z,101060.34
2023-04-15T15:33:58.902Z,101067.94
2023-04-15T15:36:25.293Z,101066.50
2023-04-15T15:38:51.598Z,101069.91
2023-04-15T15:41:17.910Z,101063.00
2023-04-15T15:43:44.241Z,101064.25
2023-04-15T15:46:10.607Z,101065.72
2023-04-15T15:48:36.978Z,101068.03
2023-04-15T15:51:03.280Z,101077.72
2023-04-15T15:53:29.755Z,101070.25
2023-04-15T15:55:56.132Z,101077.53
2023-04-15T15:58:22.609Z,101079.78
2023-04-15T16:00:49.024Z,101078.06
2023-04-15T16:03:15.582Z,101083.25
2023-04-15T16:05:42.081Z,101087.50
2023-04-15T16:08:08.434Z,101085.97
2023-04-15T16:10:34.770Z,101092.69
2023-04-15T16:13:01.141Z,101101.34
2023-04-15T16:15:27.461Z,101098.63
2023-04-15T16:17:53.853Z,101111.69
2023-04-15T16:20:20.260Z,101113.56
2023-04-15T16:22:46.637Z,101113.25
2023-04-15T16:25:12.981Z,101113.59
2023-04-15T16:30:08.575Z,101113.19
2023-04-15T16:32:34.900Z,101124.84
2023-04-15T16:35:01.225Z,101127.06
2023-04-15T16:37:27.620Z,101133.84
2023-04-15T16:39:53.993Z,101134.28
2023-04-15T16:42:20.312Z,101131.31
2023-04-15T16:44:46.624Z,101134.56
2023-04-15T16:47:12.995Z,101139.22
2023-04-15T16:49:39.382Z,101136.94
2023-04-15T16:52:05.737Z,101141.19
2023-04-15T16:54:32.064Z,101153.66
2023-04-15T16:56:58.448Z,101155.56
2023-04-15T16:59:24.813Z,101149.41
2023-04-15T17:01:51.204Z,101146.78
2023-04-15T17:04:17.762Z,101148.06
2023-04-15T17:06:44.156Z,101154.25
2023-04-15T17:09:10.480Z,101168.22
2023-04-15T17:11:36.797Z,101162.69
2023-04-15T17:14:03.104Z,101170.84
2023-04-15T17:16:29.471Z,101174.66
2023-04-15T17:18:55.832Z,101174.19
2023-04-15T17:21:22.153Z,101175.09
2023-04-15T17:23:48.477Z,101183.97
2023-04-15T17:26:14.778Z,101174.63
2023-04-15T17:28:41.128Z,101181.16
2023-04-15T17:31:07.512Z,101190.94
2023-04-15T17:34:00.669Z,101200.78
2023-04-15T17:36:20.313Z,101197.84
2023-04-15T17:38:46.621Z,101192.81
2023-04-15T17:41:12.945Z,101207.97
2023-04-15T17:43:39.251Z,101207.97
2023-04-15T17:46:05.619Z,101203.38
2023-04-15T17:48:31.988Z,101208.66
2023-04-15T17:50:58.320Z,101207.13
2023-04-15T17:53:24.654Z,101209.91
2023-04-15T17:55:51.005Z,101218.59
2023-04-15T17:58:17.378Z,101220.72
2023-04-15T18:00:43.751Z,101217.59
2023-04-15T18:03:10.315Z,101226.34
2023-04-15T18:05:36.786Z,101234.41
2023-04-15T18:08:03.113Z,101231.00
2023-04-15T18:10:29.509Z,101240.63
2023-04-15T18:12:55.880Z,101236.81
2023-04-15T18:15:22.241Z,101242.00
2023-04-15T18:17:48.672Z,101250.19
2023-04-15T18:20:15.050Z,101248.81
2023-04-15T18:22:41.375Z,101255.88
2023-04-15T18:25:07.727Z,101257.66
2023-04-15T18:27:34.099Z,101267.09
2023-04-15T18:30:00.582Z,101263.44
2023-04-15T18:32:26.954Z,101269.72
2023-04-15T18:34:53.359Z,101272.94
2023-04-15T18:37:19.674Z,101278.75
2023-04-15T18:39:46.003Z,101275.34
2023-04-15T18:42:12.328Z,101282.72
2023-04-15T18:44:38.714Z,101290.47
2023-04-15T18:47:05.113Z,101287.31
2023-04-15T18:49:31.434Z,101294.81
2023-04-15T18:51:57.775Z,101300.53
2023-04-15T18:54:24.210Z,101310.22
2023-04-15T18:56:50.523Z,101310.63
2023-04-15T18:59:28.744Z,101317.63
2023-04-15T19:01:56.297Z,101321.84
2023-04-15T19:04:22.722Z,101327.31
2023-04-15T19:06:49.094Z,101333.53
2023-04-15T19:09:15.496Z,101339.03
2023-04-15T19:11:41.829Z,101344.84
2023-04-15T19:14:08.205Z,101348.06
2023-04-15T19:16:34.595Z,101349.66
2023-04-15T19:19:00.999Z,101353.97
2023-04-15T19:21:27.386Z,101348.53
2023-04-15T19:23:53.745Z,101366.97
2023-04-15T19:26:20.106Z,101361.59
2023-04-15T19:28:46.420Z,101361.72
2023-04-15T19:31:12.792Z,101377.94
2023-04-15T19:33:39.187Z,101376.94
2023-04-15T19:36:05.640Z,101385.31
2023-04-15T19:38:31.961Z,101385.03
2023-04-15T19:40:58.250Z,101390.47
2023-04-15T19:43:24.606Z,101397.41
2023-04-15T19:45:50.966Z,101391.53
2023-04-15T19:48:17.295Z,101398.09
2023-04-15T19:50:43.611Z,101403.53
2023-04-15T19:53:09.905Z,101409.75
2023-04-15T19:55:36.205Z,101408.22
2023-04-15T19:58:02.569Z,101411.44
2023-04-15T20:00:29.017Z,101419.31
2023-04-15T20:02:55.439Z,101419.19
2023-04-15T20:05:21.883Z,101417.00
2023-04-15T20:07:48.235Z,101421.47
2023-04-15T20:10:14.585Z,101430.09
2023-04-15T20:12:49.679Z,101428.09
2023-04-15T20:15:18.789Z,101435.16
2023-04-15T20:17:45.185Z,101436.41
2023-04-15T20:20:11.520Z,101444.09
2023-04-15T20:22:37.871Z,101448.09
2023-04-15T20:25:04.269Z,101444.38
2023-04-15T20:27:30.642Z,101447.59
2023-04-15T20:29:56.960Z,101448.00
2023-04-15T20:32:23.330Z,101451.03
2023-04-15T20:34:49.678Z,101455.69
2023-04-15T20:37:16.032Z,101457.72
2023-04-15T20:39:42.403Z,101464.25
2023-04-15T20:42:08.755Z,101454.16
2023-04-15T20:44:35.105Z,101462.03
2023-04-15T20:47:01.469Z,101470.84
2023-04-15T20:49:27.908Z,101467.81
2023-04-15T20:51:54.260Z,101471.31
2023-04-15T20:54:20.561Z,101473.28
2023-04-15T20:56:47.016Z,101487.25
2023-04-15T20:59:13.358Z,101481.03
2023-04-15T21:01:39.746Z,101488.53
2023-04-15T21:04:06.234Z,101487.66
2023-04-15T21:06:32.601Z,101486.09
2023-04-15T21:08:58.911Z,101493.88
2023-04-15T21:11:43.062Z,101495.34
2023-04-15T21:14:11.568Z,101504.75
2023-04-15T21:16:38.053Z,101504.00
2023-04-15T21:19:04.755Z,101508.25
2023-04-15T21:21:31.358Z,101506.75
2023-04-15T21:23:57.671Z,101514.13
2023-04-15T21:26:23.975Z,101514.81
2023-04-15T21:28:50.282Z,101526.09
2023-04-15T21:31:16.674Z,101532.31
2023-04-15T21:33:43.078Z,101528.50
2023-04-15T21:36:09.403Z,101536.41
2023-04-15T21:38:35.695Z,101529.66
2023-04-15T21:41:02.040Z,101539.81
2023-04-15T21:43:28.450Z,101542.13
2023-04-15T21:46:24.344Z,101539.81
2023-04-15T21:48:41.060Z,101554.03
2023-04-15T21:51:07.396Z,101551.81
2023-04-15T21:53:33.717Z,101549.97
2023-04-15T21:56:00.041Z,101560.84
2023-04-15T21:58:26.360Z,101560.81
2023-04-15T22:00:52.754Z,101565.75
2023-04-15T22:03:19.309Z,101567.03
2023-04-15T22:05:45.785Z,101569.34
2023-04-15T22:08:12.197Z,101565.53
2023-04-15T22:10:38.570Z,101567.06
2023-04-15T22:13:04.926Z,101572.50
2023-04-15T22:15:31.341Z,101571.31
2023-04-15T22:17:57.705Z,101577.94
2023-04-15T22:20:24.054Z,101576.75
2023-04-15T22:22:50.429Z,101580.25
2023-04-15T22:25:20.821Z,101581.00
2023-04-15T22:27:47.116Z,101592.28
2023-04-15T22:30:13.437Z,101594.16
2023-04-15T22:32:39.891Z,101586.00
2023-04-15T22:35:06.245Z,101592.31
2023-04-15T22:37:32.613Z,101598.50
2023-04-15T22:39:59.005Z,101597.72
2023-04-15T22:42:25.385Z,101608.25
2023-04-15T22:44:51.725Z,101610.88
2023-04-15T22:47:18.043Z,101609.06
2023-04-15T22:49:44.361Z,101609.81
2023-04-15T22:52:14.512Z,101610.50
2023-04-15T22:54:46.488Z,101623.78
2023-04-15T22:57:12.877Z,101619.13
2023-04-15T22:59:39.189Z,101626.03
2023-04-15T23:02:05.589Z,101625.03
2023-04-15T23:04:32.112Z,101626.19
2023-04-15T23:06:58.592Z,101624.63
2023-04-15T23:09:24.970Z,101626.84
2023-04-15T23:11:51.285Z,101625.41
2023-04-15T23:14:17.597Z,101633.19
2023-04-15T23:16:43.936Z,101632.41
2023-04-15T23:19:10.437Z,101629.66
2023-04-15T23:21:36.933Z,101623.47
2023-04-15T23:24:03.314Z,101624.63
2023-04-15T23:26:29.621Z,101628.59
2023-04-15T23:28:55.941Z,101630.91
2023-04-15T23:31:22.354Z,101630.84
2023-04-15T23:33:48.774Z,101631.94
2023-04-15T23:36:15.102Z,101629.66
2023-04-15T23:38:41.463Z,101630.84
2023-04-15T23:41:07.893Z,101633.97
2023-04-15T23:43:34.213Z,101632.44
2023-04-15T23:46:00.553Z,101636.63
2023-04-15T23:48:26.909Z,101638.69
2023-04-15T23:50:53.249Z,101637.59
2023-04-15T23:53:19.574Z,101646.41
2023-04-15T23:55:45.952Z,101648.72
2023-04-15T23:58:12.251Z,101640.13
